Time;durP1;ratioP1;P1;durP2;ratioP2;P2;SDS_P1;SDS_P2;PMS_P1;PMS_P2;Temp;Humidity;BMP_temperature;BMP_pressure;BME280_temperature;BME280_humidity;BME280_pressure;Samples;Min_cycle;Max_cycle;Signal;HPM_P1;HPM_P2
2022/11/16 00:00:23;;;;;;;7.90;6.57;;;12.00;99.90;;;;;;4944378;28;20039;-67
2022/11/16 00:02:50;;;;;;;10.73;7.20;;;12.10;99.90;;;;;;4945138;28;20044;-66
2022/11/16 00:05:17;;;;;;;9.90;7.35;;;12.10;99.90;;;;;;4948053;28;20062;-66
2022/11/16 00:07:43;;;;;;;8.98;6.93;;;12.00;99.90;;;;;;4942524;28;20044;-66
2022/11/16 00:10:10;;;;;;;9.55;7.18;;;12.00;99.90;;;;;;4948136;28;20094;-66
2022/11/16 00:12:37;;;;;;;11.32;7.30;;;12.00;99.90;;;;;;4942991;28;20038;-66
2022/11/16 00:15:04;;;;;;;9.32;6.97;;;12.00;99.90;;;;;;4948346;28;20078;-66
2022/11/16 00:17:29;;;;;;;10.48;7.60;;;12.00;99.90;;;;;;4962357;28;20459;-67
2022/11/16 00:19:55;;;;;;;9.20;7.15;;;12.10;99.90;;;;;;4939824;28;20066;-67
2022/11/16 00:22:20;;;;;;;9.60;7.75;;;12.10;99.90;;;;;;4946163;28;20187;-66
2022/11/16 00:24:46;;;;;;;10.55;8.23;;;12.10;99.90;;;;;;4950429;28;20035;-66
2022/11/16 00:27:11;;;;;;;10.02;7.60;;;12.10;99.90;;;;;;4944572;28;20511;-65
2022/11/16 00:29:37;;;;;;;10.55;7.80;;;12.10;99.90;;;;;;4941909;28;20114;-66
2022/11/16 00:32:03;;;;;;;9.32;7.47;;;12.00;99.90;;;;;;4939198;28;20040;-66
2022/11/16 00:34:28;;;;;;;9.18;7.30;;;12.00;99.90;;;;;;4942537;28;20602;-66
2022/11/16 00:36:54;;;;;;;9.48;7.38;;;12.00;99.90;;;;;;4942030;28;20040;-65
2022/11/16 00:39:20;;;;;;;10.50;8.27;;;11.90;99.90;;;;;;4944438;28;20368;-65
2022/11/16 00:41:46;;;;;;;11.07;7.70;;;11.90;99.90;;;;;;4941990;28;20042;-66
2022/11/16 00:44:11;;;;;;;9.02;7.78;;;12.00;99.90;;;;;;4948400;28;20079;-66
2022/11/16 00:46:37;;;;;;;10.32;7.85;;;12.00;99.90;;;;;;4938468;28;20230;-66
2022/11/16 00:49:04;;;;;;;10.82;7.88;;;11.90;99.90;;;;;;4940538;28;20794;-67
2022/11/16 00:51:30;;;;;;;9.55;7.68;;;11.90;99.90;;;;;;4955363;28;20340;-67
2022/11/16 00:53:55;;;;;;;10.88;7.93;;;11.90;99.90;;;;;;4949430;28;20022;-67
2022/11/16 00:56:21;;;;;;;10.95;8.27;;;11.90;99.90;;;;;;4938861;28;20298;-67
2022/11/16 00:58:47;;;;;;;11.63;7.57;;;12.00;99.90;;;;;;4938779;28;20027;-67
2022/11/16 01:01:13;;;;;;;11.07;8.23;;;12.00;99.90;;;;;;4949243;28;20145;-66
2022/11/16 01:03:39;;;;;;;9.35;8.20;;;12.00;99.90;;;;;;4939942;28;20083;-67
2022/11/16 01:06:07;;;;;;;10.55;8.07;;;12.00;99.90;;;;;;4940802;28;20027;-66
2022/11/16 01:08:34;;;;;;;12.73;8.50;;;12.00;99.90;;;;;;4949497;28;20035;-66
2022/11/16 01:12:07;;;;;;;12.70;8.10;;;12.00;99.90;;;;;;4942746;28;20028;-66
2022/11/16 01:13:47;;;;;;;10.95;8.02;;;12.00;99.90;;;;;;4961939;28;20024;-66
2022/11/16 01:16:15;;;;;;;9.18;7.65;;;12.00;99.90;;;;;;4967041;28;20035;-66
2022/11/16 01:18:40;;;;;;;9.93;8.13;;;12.00;99.90;;;;;;4972684;28;20102;-66
2022/11/16 01:21:06;;;;;;;12.13;8.07;;;12.10;99.90;;;;;;4962548;28;20038;-66
2022/11/16 01:23:32;;;;;;;10.80;8.88;;;12.00;99.90;;;;;;4968316;28;20471;-66
2022/11/16 01:26:00;;;;;;;13.35;8.90;;;12.00;99.90;;;;;;4960741;28;20030;-66
2022/11/16 01:28:27;;;;;;;14.98;8.65;;;12.00;99.90;;;;;;4962678;28;20706;-64
2022/11/16 01:30:52;;;;;;;10.40;8.57;;;12.00;99.90;;;;;;4960803;28;20497;-65
2022/11/16 01:33:18;;;;;;;12.65;8.75;;;12.00;99.90;;;;;;4977717;28;20035;-67
2022/11/16 01:35:43;;;;;;;13.43;9.00;;;12.00;99.90;;;;;;4964498;28;20034;-67
2022/11/16 01:38:09;;;;;;;12.30;8.93;;;12.00;99.90;;;;;;4961682;28;20041;-66
2022/11/16 01:40:36;;;;;;;12.70;9.07;;;12.10;99.90;;;;;;4962332;28;20379;-66
2022/11/16 01:43:02;;;;;;;13.55;9.80;;;12.00;99.90;;;;;;4960141;28;20039;-68
2022/11/16 01:45:37;;;;;;;12.13;9.27;;;12.00;99.90;;;;;;4959702;28;20811;-66
2022/11/16 01:48:04;;;;;;;11.60;9.85;;;12.00;99.90;;;;;;4967309;28;20043;-67
2022/11/16 01:50:29;;;;;;;13.02;10.23;;;12.10;99.90;;;;;;4961120;28;20261;-67
2022/11/16 01:52:59;;;;;;;12.95;10.27;;;12.10;99.90;;;;;;4961874;28;20022;-67
2022/11/16 01:55:27;;;;;;;14.05;10.48;;;12.10;99.90;;;;;;4961943;28;20042;-67
2022/11/16 01:57:54;;;;;;;12.70;11.18;;;12.00;99.90;;;;;;4960614;28;20118;-68
2022/11/16 02:00:19;;;;;;;13.82;10.90;;;12.10;99.90;;;;;;4959611;28;20031;-67
2022/11/16 02:02:45;;;;;;;13.35;10.55;;;12.10;99.90;;;;;;4961007;28;20096;-67
2022/11/16 02:05:15;;;;;;;14.18;11.05;;;12.00;99.90;;;;;;4961746;28;20035;-66
2022/11/16 02:11:00;;;;;;;15.15;11.25;;;12.00;99.90;;;;;;4959762;28;20046;-67
2022/11/16 02:13:49;;;;;;;15.65;11.35;;;12.10;99.90;;;;;;4960205;28;20035;-67
2022/11/16 02:16:32;;;;;;;15.07;11.10;;;12.00;99.90;;;;;;4962562;28;20042;-66
2022/11/16 02:19:33;;;;;;;14.45;11.07;;;11.90;99.90;;;;;;4959213;28;20431;-67
2022/11/16 02:22:17;;;;;;;15.75;11.13;;;11.90;99.90;;;;;;4947413;28;20035;-67
2022/11/16 02:24:45;;;;;;;15.70;11.30;;;11.90;99.90;;;;;;4941672;28;20043;-67
2022/11/16 02:27:49;;;;;;;14.90;11.10;;;12.00;99.90;;;;;;4953067;28;20031;-66
2022/11/16 02:30:17;;;;;;;15.60;11.30;;;11.90;99.90;;;;;;4950552;28;20449;-66
2022/11/16 02:32:51;;;;;;;14.85;11.32;;;11.90;99.90;;;;;;4964358;28;20105;-66
2022/11/16 02:35:20;;;;;;;16.45;11.20;;;11.90;99.90;;;;;;4973867;28;20110;-67
2022/11/16 02:37:56;;;;;;;14.57;10.80;;;11.80;99.90;;;;;;4976711;28;20471;-67
2022/11/16 02:40:25;;;;;;;13.73;10.38;;;11.90;99.90;;;;;;4957793;28;20039;-67
2022/11/16 02:42:55;;;;;;;11.45;9.77;;;11.80;99.90;;;;;;4958727;28;20082;-67
2022/11/16 02:45:24;;;;;;;16.30;10.73;;;11.90;99.90;;;;;;4958192;28;20073;-66
2022/11/16 02:47:51;;;;;;;13.70;9.60;;;12.00;99.90;;;;;;4948567;28;20124;-67
2022/11/16 02:50:20;;;;;;;12.95;9.82;;;12.00;99.90;;;;;;4955737;28;20057;-65
2022/11/16 02:52:46;;;;;;;12.93;10.45;;;12.00;99.90;;;;;;4953096;28;20382;-66
2022/11/16 02:55:12;;;;;;;14.82;10.50;;;12.00;99.90;;;;;;4943663;28;20050;-67
2022/11/16 02:57:37;;;;;;;14.02;10.23;;;12.00;99.90;;;;;;4959623;28;20062;-67
2022/11/16 03:00:06;;;;;;;14.50;10.10;;;12.00;99.90;;;;;;4959571;28;20521;-65
2022/11/16 03:02:45;;;;;;;18.42;10.82;;;12.00;99.90;;;;;;4956133;28;20161;-67
2022/11/16 03:05:19;;;;;;;13.50;10.02;;;11.90;99.90;;;;;;4964043;28;20054;-66
2022/11/16 03:07:59;;;;;;;14.00;10.38;;;11.90;99.90;;;;;;4958792;28;20043;-67
2022/11/16 03:13:12;;;;;;;12.20;9.48;;;11.90;99.90;;;;;;4953374;28;20102;-66
2022/11/16 03:15:40;;;;;;;16.05;10.27;;;11.90;99.90;;;;;;4968832;28;20513;-66
2022/11/16 03:18:07;;;;;;;14.45;10.13;;;12.00;99.90;;;;;;4956932;28;20119;-65
2022/11/16 03:20:34;;;;;;;15.27;10.63;;;11.90;99.90;;;;;;4937395;28;20039;-67
2022/11/16 03:23:07;;;;;;;14.68;11.15;;;12.00;99.90;;;;;;4970570;28;20515;-66
2022/11/16 03:25:43;;;;;;;15.52;10.90;;;12.00;99.90;;;;;;4948794;28;20795;-66
2022/11/16 03:28:28;;;;;;;13.02;10.77;;;12.00;99.90;;;;;;4939131;28;20464;-67
2022/11/16 03:31:01;;;;;;;16.00;11.00;;;11.90;99.90;;;;;;4944027;28;20495;-66
2022/11/16 03:33:29;;;;;;;13.13;11.48;;;11.90;99.90;;;;;;4954352;28;20039;-66
2022/11/16 03:36:13;;;;;;;14.95;11.57;;;11.90;99.90;;;;;;4968412;28;20023;-67
2022/11/16 03:38:40;;;;;;;14.63;11.40;;;12.00;99.90;;;;;;4943487;28;20039;-67
2022/11/16 03:41:08;;;;;;;14.15;10.95;;;12.00;99.90;;;;;;4951937;28;20578;-67
2022/11/16 03:43:35;;;;;;;12.95;11.55;;;12.10;99.90;;;;;;4942777;28;20030;-67
2022/11/16 03:46:01;;;;;;;13.63;10.65;;;12.00;99.90;;;;;;4939850;28;20045;-66
2022/11/16 03:48:34;;;;;;;15.63;11.00;;;12.00;99.90;;;;;;4951580;28;20039;-66
2022/11/16 03:51:00;;;;;;;12.82;10.60;;;11.90;99.90;;;;;;4949786;28;20039;-67
2022/11/16 03:53:26;;;;;;;15.02;10.80;;;11.90;99.90;;;;;;4954432;28;20607;-65
2022/11/16 03:55:52;;;;;;;14.98;10.98;;;11.90;99.90;;;;;;4965849;28;20039;-65
2022/11/16 03:58:17;;;;;;;12.70;10.75;;;11.90;99.90;;;;;;4959807;28;20347;-66
2022/11/16 04:00:43;;;;;;;12.30;10.82;;;11.90;99.90;;;;;;4964280;28;20031;-66
2022/11/16 04:03:09;;;;;;;14.68;10.73;;;11.80;99.90;;;;;;4962576;28;20094;-65
2022/11/16 04:24:59;;;;;;;14.02;10.00;;;11.70;99.90;;;;;;4940477;28;20118;-65
2022/11/16 04:30:12;;;;;;;11.90;9.73;;;11.60;99.90;;;;;;4943296;28;20079;-65
2022/11/16 04:38:11;;;;;;;9.85;8.48;;;11.50;99.90;;;;;;4937025;28;20054;-66
2022/11/16 04:40:37;;;;;;;10.45;8.02;;;11.60;99.90;;;;;;4942996;28;20039;-66
2022/11/16 04:43:03;;;;;;;10.88;7.55;;;11.70;99.90;;;;;;4941068;28;20035;-65
2022/11/16 04:48:15;;;;;;;9.48;7.45;;;11.70;99.90;;;;;;4946382;28;20045;-65
2022/11/16 04:50:41;;;;;;;11.02;7.93;;;11.70;99.90;;;;;;4946231;28;20125;-64
2022/11/16 04:53:08;;;;;;;11.63;7.40;;;11.60;99.90;;;;;;4942447;28;20150;-65
2022/11/16 04:55:34;;;;;;;9.90;7.70;;;11.70;99.90;;;;;;4944276;28;20054;-66
2022/11/16 04:57:59;;;;;;;8.70;6.93;;;11.60;99.90;;;;;;4941530;28;20089;-66
2022/11/16 05:00:25;;;;;;;10.05;6.30;;;11.60;99.90;;;;;;4949267;28;20028;-65
2022/11/16 05:02:51;;;;;;;10.07;6.20;;;11.50;99.90;;;;;;4944426;28;20510;-64
2022/11/16 05:05:17;;;;;;;10.13;6.10;;;11.50;99.90;;;;;;4945438;28;20245;-65
2022/11/16 05:07:42;;;;;;;7.57;5.45;;;11.50;99.90;;;;;;4942094;28;20066;-65
2022/11/16 05:10:09;;;;;;;6.35;4.72;;;11.40;99.90;;;;;;4974962;28;20038;-66
2022/11/16 05:12:35;;;;;;;8.57;5.20;;;11.40;99.90;;;;;;4965322;28;20046;-66
2022/11/16 05:15:01;;;;;;;7.45;5.13;;;11.50;99.90;;;;;;4959920;28;20053;-65
2022/11/16 05:17:27;;;;;;;5.60;4.10;;;11.40;99.90;;;;;;4967457;28;20445;-66
2022/11/16 05:22:37;;;;;;;5.30;3.97;;;11.40;99.90;;;;;;4960061;28;20143;-66
2022/11/16 05:25:05;;;;;;;6.03;3.70;;;11.40;99.90;;;;;;4946607;28;20443;-65
2022/11/16 05:27:31;;;;;;;6.45;3.72;;;11.40;99.90;;;;;;4952434;28;20046;-65
2022/11/16 05:29:56;;;;;;;5.18;3.33;;;11.40;99.90;;;;;;4941578;28;20031;-65
2022/11/16 05:32:24;;;;;;;4.80;3.47;;;11.40;99.90;;;;;;4935382;28;20431;-65
2022/11/16 05:34:49;;;;;;;5.43;3.40;;;11.40;99.90;;;;;;4934507;28;20040;-65
2022/11/16 05:37:16;;;;;;;5.45;3.28;;;11.30;99.90;;;;;;4950675;28;20119;-65
2022/11/16 05:39:42;;;;;;;4.47;2.88;;;11.40;99.90;;;;;;4942124;28;20111;-66
2022/11/16 05:42:08;;;;;;;4.35;2.88;;;11.30;99.90;;;;;;4940599;28;20049;-65
2022/11/16 05:44:33;;;;;;;4.43;2.58;;;11.30;99.90;;;;;;4945567;28;20440;-65
2022/11/16 05:46:59;;;;;;;3.50;2.60;;;11.50;99.90;;;;;;4945082;28;20047;-65
2022/11/16 05:49:25;;;;;;;4.47;2.53;;;11.50;99.90;;;;;;4945277;28;20028;-65
2022/11/16 05:51:51;;;;;;;4.10;2.65;;;12.30;99.90;;;;;;4940933;28;20673;-66
2022/11/16 05:54:22;;;;;;;3.63;2.47;;;11.90;99.90;;;;;;4940796;28;20676;-64
2022/11/16 05:56:48;;;;;;;4.43;2.78;;;11.90;99.90;;;;;;4942278;28;20563;-65
2022/11/16 05:59:16;;;;;;;4.32;2.80;;;11.80;99.90;;;;;;4938772;28;20118;-64
2022/11/16 06:01:42;;;;;;;5.18;2.75;;;11.70;99.90;;;;;;4943489;28;20049;-64
2022/11/16 06:04:08;;;;;;;4.10;2.80;;;11.80;99.90;;;;;;4939373;28;20506;-65
2022/11/16 06:06:34;;;;;;;6.20;2.83;;;11.90;99.90;;;;;;4945951;28;20129;-64
2022/11/16 06:09:00;;;;;;;6.78;3.15;;;11.80;99.90;;;;;;4940196;28;20070;-65
2022/11/16 06:11:26;;;;;;;5.60;2.47;;;11.50;99.90;;;;;;4941201;28;20189;-64
2022/11/16 06:13:52;;;;;;;4.95;2.70;;;11.40;99.90;;;;;;4942436;28;20028;-66
2022/11/16 06:16:17;;;;;;;5.05;2.40;;;11.30;99.90;;;;;;4943032;28;20047;-65
2022/11/16 06:18:45;;;;;;;4.70;3.00;;;11.50;99.90;;;;;;4950903;28;20053;-64
2022/11/16 06:21:13;;;;;;;4.80;3.17;;;11.60;99.90;;;;;;4941814;28;20126;-65
2022/11/16 06:23:38;;;;;;;6.25;3.05;;;11.50;99.90;;;;;;4940916;28;20051;-65
2022/11/16 06:26:05;;;;;;;4.88;2.95;;;11.50;99.90;;;;;;4939655;28;20054;-65
2022/11/16 06:28:31;;;;;;;7.28;3.63;;;11.60;99.90;;;;;;4947559;28;20130;-65
2022/11/16 06:30:56;;;;;;;9.18;3.50;;;11.60;99.90;;;;;;4962786;28;20177;-66
2022/11/16 06:33:22;;;;;;;8.27;3.95;;;11.70;99.90;;;;;;4959656;28;20066;-66
2022/11/16 06:35:47;;;;;;;5.65;3.40;;;11.70;99.90;;;;;;4958656;28;20035;-66
2022/11/16 06:38:17;;;;;;;5.82;3.08;;;11.50;99.90;;;;;;4962111;28;20035;-65
2022/11/16 06:40:51;;;;;;;6.47;3.20;;;11.50;99.90;;;;;;4959293;28;20509;-65
2022/11/16 06:43:17;;;;;;;6.82;3.55;;;11.30;99.90;;;;;;4955851;28;20419;-65
2022/11/16 06:45:42;;;;;;;7.55;3.38;;;11.30;99.90;;;;;;4981097;28;20149;-66
2022/11/16 06:48:08;;;;;;;6.22;3.20;;;11.20;99.90;;;;;;4957201;28;20682;-65
2022/11/16 06:50:34;;;;;;;9.52;3.90;;;11.10;99.90;;;;;;4964231;28;20041;-64
2022/11/16 06:52:59;;;;;;;8.18;3.60;;;11.20;99.90;;;;;;4962581;28;20035;-66
2022/11/16 06:55:26;;;;;;;7.85;4.10;;;11.20;99.90;;;;;;4962987;28;20054;-65
2022/11/16 06:57:52;;;;;;;10.75;3.70;;;11.30;99.90;;;;;;4963837;28;20035;-66
2022/11/16 07:00:18;;;;;;;10.57;4.43;;;11.20;99.90;;;;;;4963176;28;20759;-66
2022/11/16 07:02:43;;;;;;;10.18;4.90;;;11.20;99.90;;;;;;4963116;28;20532;-65
2022/11/16 07:05:09;;;;;;;7.60;4.20;;;11.30;99.90;;;;;;4960289;28;20050;-64
2022/11/16 07:07:34;;;;;;;11.23;4.93;;;11.30;99.90;;;;;;4962062;28;20043;-64
2022/11/16 07:10:00;;;;;;;9.65;4.65;;;11.30;99.90;;;;;;4961300;28;20154;-64
2022/11/16 07:12:26;;;;;;;10.48;4.85;;;11.20;99.90;;;;;;4939824;28;20825;-64
2022/11/16 07:14:51;;;;;;;14.13;6.30;;;11.30;99.90;;;;;;4945740;28;20047;-63
2022/11/16 07:17:17;;;;;;;9.52;5.07;;;11.30;99.90;;;;;;4937260;28;20074;-65
2022/11/16 07:19:42;;;;;;;10.63;4.75;;;11.30;99.90;;;;;;4957157;28;20054;-64
2022/11/16 07:22:08;;;;;;;8.13;4.50;;;11.40;99.90;;;;;;4938692;28;20098;-64
2022/11/16 07:24:33;;;;;;;26.15;7.90;;;11.50;99.90;;;;;;4939964;28;20098;-64
2022/11/16 07:26:59;;;;;;;9.52;4.13;;;11.50;99.90;;;;;;4955196;28;20049;-64
2022/11/16 07:29:25;;;;;;;15.52;4.20;;;11.30;99.90;;;;;;4958599;28;20113;-64
2022/11/16 07:31:50;;;;;;;13.30;4.43;;;11.30;99.90;;;;;;4954872;28;20049;-64
2022/11/16 07:34:16;;;;;;;9.90;4.00;;;11.40;99.90;;;;;;4938731;28;20138;-64
2022/11/16 07:36:41;;;;;;;11.00;4.38;;;11.20;99.90;;;;;;4930512;28;20050;-64
2022/11/16 07:39:09;;;;;;;10.95;4.38;;;11.30;99.90;;;;;;4951086;28;20050;-64
2022/11/16 07:41:35;;;;;;;12.25;4.22;;;11.20;99.90;;;;;;4945330;28;20329;-64
2022/11/16 07:44:01;;;;;;;14.35;4.30;;;11.30;99.90;;;;;;4945430;28;20075;-64
2022/11/16 07:46:27;;;;;;;10.32;4.00;;;11.30;99.90;;;;;;4952348;28;20043;-64
2022/11/16 07:48:52;;;;;;;11.30;4.43;;;10.90;99.90;;;;;;4946267;28;20039;-64
2022/11/16 07:51:19;;;;;;;12.02;4.03;;;10.70;99.90;;;;;;4951295;28;20035;-64
2022/11/16 07:53:45;;;;;;;12.48;4.10;;;10.60;99.90;;;;;;4943106;29;20769;-64
2022/11/16 07:56:11;;;;;;;10.90;4.32;;;10.70;99.90;;;;;;4949317;28;20480;-64
2022/11/16 07:58:38;;;;;;;8.90;4.13;;;10.70;99.90;;;;;;4950358;28;20031;-64
2022/11/16 08:01:08;;;;;;;11.00;4.28;;;11.00;99.90;;;;;;4945405;28;20043;-64
2022/11/16 08:03:34;;;;;;;10.55;3.90;;;10.90;99.90;;;;;;4950639;28;20031;-64
2022/11/16 08:06:03;;;;;;;10.27;3.42;;;10.90;99.90;;;;;;4940547;28;20027;-65
2022/11/16 08:08:29;;;;;;;14.27;4.00;;;10.80;99.90;;;;;;4943062;28;20553;-64
2022/11/16 08:11:05;;;;;;;12.85;3.67;;;10.60;99.90;;;;;;4948595;28;20134;-64
2022/11/16 08:13:33;;;;;;;9.07;3.50;;;10.70;99.90;;;;;;4931135;28;20043;-64
2022/11/16 08:16:06;;;;;;;10.13;3.53;;;10.70;99.90;;;;;;4949253;28;20079;-64
2022/11/16 08:18:32;;;;;;;9.20;3.50;;;10.70;99.90;;;;;;4927579;28;20043;-63
2022/11/16 08:21:00;;;;;;;14.93;3.90;;;10.70;99.90;;;;;;4943543;28;20521;-64
2022/11/16 08:23:26;;;;;;;11.98;3.30;;;10.70;99.90;;;;;;4949797;28;20031;-64
2022/11/16 08:25:58;;;;;;;12.98;3.60;;;10.60;99.90;;;;;;4946309;28;20110;-64
2022/11/16 08:28:23;;;;;;;13.82;3.53;;;10.60;99.90;;;;;;4950352;28;20695;-64
2022/11/16 08:30:51;;;;;;;12.32;3.05;;;10.60;99.90;;;;;;4945528;28;20049;-64
2022/11/16 08:33:18;;;;;;;10.02;2.85;;;10.60;99.90;;;;;;4949052;28;20040;-64
2022/11/16 08:35:44;;;;;;;11.98;3.00;;;10.60;99.90;;;;;;4947977;28;20113;-64
2022/11/16 08:38:09;;;;;;;6.90;2.78;;;10.60;99.90;;;;;;4931087;28;20039;-63
2022/11/16 08:40:36;;;;;;;12.98;2.90;;;10.60;99.90;;;;;;4954410;28;20034;-64
2022/11/16 08:43:01;;;;;;;14.65;4.97;;;10.70;99.90;;;;;;4948590;28;20142;-64
2022/11/16 08:45:27;;;;;;;17.48;4.80;;;10.80;99.90;;;;;;4943185;28;20043;-68
2022/11/16 08:47:53;;;;;;;8.90;2.70;;;10.80;99.90;;;;;;4942667;28;20094;-64
2022/11/16 08:50:18;;;;;;;12.23;2.38;;;10.70;99.90;;;;;;4942804;28;20082;-64
2022/11/16 08:52:44;;;;;;;9.05;2.13;;;10.70;99.90;;;;;;4949710;28;20031;-64
2022/11/16 08:55:12;;;;;;;7.05;2.50;;;10.80;99.90;;;;;;4950267;28;20051;-64
2022/11/16 08:57:38;;;;;;;7.55;2.17;;;10.70;99.90;;;;;;4950494;28;20043;-64
2022/11/16 09:00:05;;;;;;;8.40;2.60;;;10.80;99.90;;;;;;4940665;28;20031;-64
2022/11/16 09:02:30;;;;;;;7.38;2.70;;;10.80;99.90;;;;;;4936252;28;20384;-64
2022/11/16 09:04:56;;;;;;;11.88;2.60;;;10.80;99.90;;;;;;4950770;28;20097;-64
2022/11/16 09:07:22;;;;;;;10.90;2.38;;;10.80;99.90;;;;;;4942436;28;20479;-64
2022/11/16 09:09:47;;;;;;;11.55;2.03;;;10.80;99.90;;;;;;4942752;28;20043;-64
2022/11/16 09:12:13;;;;;;;7.60;1.75;;;10.90;99.90;;;;;;4944419;28;20361;-64
2022/11/16 09:14:38;;;;;;;9.50;2.00;;;10.80;99.90;;;;;;4932665;28;20031;-64
2022/11/16 09:17:04;;;;;;;10.50;1.88;;;10.70;99.90;;;;;;4926154;29;20321;-64
2022/11/16 09:19:30;;;;;;;8.50;2.05;;;10.70;99.90;;;;;;4941580;28;20532;-64
2022/11/16 09:21:55;;;;;;;9.05;2.03;;;10.70;99.90;;;;;;4941382;28;20034;-64
2022/11/16 09:24:21;;;;;;;8.48;1.83;;;10.70;99.90;;;;;;4952544;28;20039;-64
2022/11/16 09:26:47;;;;;;;10.00;2.05;;;10.70;99.90;;;;;;4946296;28;20110;-64
2022/11/16 09:29:14;;;;;;;11.70;2.17;;;10.70;99.90;;;;;;4948172;28;20157;-63
2022/11/16 09:31:40;;;;;;;8.80;1.85;;;10.70;99.90;;;;;;4941687;28;20102;-63
2022/11/16 09:34:06;;;;;;;10.52;2.28;;;10.80;99.90;;;;;;4942819;28;20039;-64
2022/11/16 09:36:32;;;;;;;10.10;2.55;;;10.80;99.90;;;;;;4953214;28;20566;-64
2022/11/16 09:38:58;;;;;;;12.73;2.97;;;10.90;99.90;;;;;;4951959;28;20488;-64
2022/11/16 09:41:52;;;;;;;8.48;2.75;;;10.90;99.90;;;;;;4941305;28;20114;-63
2022/11/16 09:44:36;;;;;;;13.50;2.83;;;11.00;99.90;;;;;;4940342;28;20197;-64
2022/11/16 09:47:03;;;;;;;9.90;2.90;;;11.00;99.90;;;;;;4947109;28;20078;-63
2022/11/16 09:49:38;;;;;;;10.65;3.03;;;11.10;99.90;;;;;;4941838;28;20707;-64
2022/11/16 09:52:12;;;;;;;12.48;3.05;;;11.00;99.90;;;;;;4932404;28;20039;-63
2022/11/16 09:54:41;;;;;;;10.23;2.65;;;11.00;99.90;;;;;;4946207;28;20696;-64
2022/11/16 09:57:10;;;;;;;8.30;2.75;;;11.20;99.90;;;;;;4941780;28;20414;-64
2022/11/16 09:59:40;;;;;;;10.82;2.50;;;11.40;99.90;;;;;;4947768;28;20130;-64
2022/11/16 10:02:42;;;;;;;12.63;2.63;;;11.40;99.90;;;;;;4933145;28;20401;-64
2022/11/16 10:05:16;;;;;;;10.07;2.38;;;11.60;99.90;;;;;;4941222;28;20561;-64
2022/11/16 10:07:45;;;;;;;8.48;2.72;;;11.70;99.90;;;;;;4938730;28;20039;-64
2022/11/16 10:10:28;;;;;;;11.55;2.38;;;11.70;99.90;;;;;;4950637;28;20039;-64
2022/11/16 10:13:09;;;;;;;9.52;2.33;;;11.80;99.90;;;;;;4928036;28;20133;-64
2022/11/16 10:16:00;;;;;;;6.45;2.20;;;11.70;99.90;;;;;;4937581;28;20031;-64
2022/11/16 10:18:49;;;;;;;6.47;1.83;;;11.80;99.90;;;;;;4944100;28;20053;-64
2022/11/16 10:21:44;;;;;;;8.85;1.98;;;11.90;99.90;;;;;;4922424;28;20154;-64
2022/11/16 10:24:23;;;;;;;9.02;2.05;;;11.90;99.90;;;;;;4948085;28;20035;-64
2022/11/16 10:27:16;;;;;;;9.68;2.38;;;12.00;99.90;;;;;;4942132;28;20119;-64
2022/11/16 10:29:56;;;;;;;7.95;2.05;;;11.90;99.90;;;;;;4945058;28;20112;-64
2022/11/16 10:32:31;;;;;;;8.25;1.80;;;11.90;99.90;;;;;;4947959;28;20765;-64
2022/11/16 10:35:18;;;;;;;10.88;2.42;;;11.90;99.90;;;;;;4938652;28;20020;-64
2022/11/16 10:37:48;;;;;;;11.98;2.00;;;12.00;99.90;;;;;;4942409;28;20035;-63
2022/11/16 10:40:19;;;;;;;6.82;1.90;;;12.00;99.90;;;;;;4942868;28;20058;-64
2022/11/16 10:43:04;;;;;;;9.13;1.63;;;12.00;99.90;;;;;;4944786;28;20047;-64
2022/11/16 10:45:42;;;;;;;8.32;2.05;;;12.00;99.90;;;;;;4941483;28;20033;-64
2022/11/16 10:48:35;;;;;;;8.48;1.77;;;12.00;99.90;;;;;;4948939;28;20094;-63
2022/11/16 10:51:02;;;;;;;5.85;1.80;;;11.90;99.90;;;;;;4941859;28;20047;-64
2022/11/16 10:53:33;;;;;;;8.35;1.73;;;12.00;99.90;;;;;;4948488;28;20031;-64
2022/11/16 10:56:24;;;;;;;6.95;1.85;;;12.00;99.90;;;;;;4957110;28;20119;-64
2022/11/16 10:59:05;;;;;;;11.10;1.73;;;12.00;99.90;;;;;;4924320;29;20511;-64
2022/11/16 11:01:48;;;;;;;7.53;1.73;;;12.10;99.90;;;;;;4923030;29;20115;-64
2022/11/16 11:04:23;;;;;;;10.23;2.15;;;12.10;99.90;;;;;;4922174;29;20038;-64
2022/11/16 11:06:51;;;;;;;5.75;1.60;;;12.20;99.90;;;;;;4933250;29;20035;-67
2022/11/16 11:09:24;;;;;;;6.93;1.50;;;12.10;99.90;;;;;;4905783;29;20116;-68
2022/11/16 11:12:37;;;;;;;9.75;1.85;;;12.10;99.90;;;;;;4921430;29;20051;-68
2022/11/16 11:15:17;;;;;;;8.02;1.65;;;12.20;99.90;;;;;;4944026;28;20111;-68
2022/11/16 11:17:48;;;;;;;6.00;1.15;;;12.20;99.90;;;;;;4945277;28;20140;-68
2022/11/16 11:20:16;;;;;;;5.13;1.40;;;12.20;99.90;;;;;;4946556;28;20046;-69
2022/11/16 11:22:55;;;;;;;5.25;1.13;;;12.20;99.90;;;;;;4949097;28;20028;-68
2022/11/16 11:25:37;;;;;;;6.00;1.40;;;12.20;99.90;;;;;;4945736;28;20040;-67
2022/11/16 11:28:20;;;;;;;9.27;1.40;;;12.20;99.90;;;;;;4951233;28;20035;-67
2022/11/16 11:31:02;;;;;;;6.05;1.42;;;12.20;99.90;;;;;;4945411;28;20031;-68
2022/11/16 11:33:47;;;;;;;5.47;1.30;;;12.30;99.90;;;;;;4962083;28;20082;-69
2022/11/16 11:36:25;;;;;;;9.40;1.80;;;12.30;99.90;;;;;;4966948;28;22005;-67
2022/11/16 11:39:07;;;;;;;4.50;1.50;;;12.40;99.90;;;;;;4973036;28;20057;-67
2022/11/16 11:41:37;;;;;;;7.88;1.83;;;12.40;99.90;;;;;;4970690;28;20042;-68
2022/11/16 11:44:12;;;;;;;9.52;2.05;;;12.40;99.90;;;;;;4967595;28;20510;-67
2022/11/16 11:46:48;;;;;;;10.40;2.10;;;12.40;99.90;;;;;;4946579;28;20446;-68
2022/11/16 11:49:25;;;;;;;12.60;1.85;;;12.40;99.90;;;;;;4965437;28;20098;-67
2022/11/16 11:51:53;;;;;;;10.00;1.77;;;12.40;99.90;;;;;;4945389;28;20522;-69
2022/11/16 11:54:29;;;;;;;6.22;1.42;;;12.30;99.90;;;;;;4945183;28;20138;-69
2022/11/16 11:56:55;;;;;;;7.38;1.58;;;12.30;99.90;;;;;;4950739;28;20031;-70
2022/11/16 11:59:24;;;;;;;6.90;1.67;;;12.30;99.90;;;;;;4949248;28;20043;-69
2022/11/16 12:02:14;;;;;;;7.93;1.80;;;12.30;99.90;;;;;;4937507;28;20531;-68
2022/11/16 12:04:59;;;;;;;8.30;1.73;;;12.30;99.90;;;;;;4939713;28;20508;-68
2022/11/16 12:07:51;;;;;;;7.65;1.70;;;12.40;99.90;;;;;;4944946;28;20075;-71
2022/11/16 12:10:47;;;;;;;10.00;1.60;;;12.30;99.90;;;;;;4954984;28;20027;-69
2022/11/16 12:13:59;;;;;;;9.00;1.40;;;12.40;99.90;;;;;;4943991;28;20027;-67
2022/11/16 12:16:53;;;;;;;8.20;1.65;;;12.40;99.90;;;;;;4949913;28;20042;-68
2022/11/16 12:19:26;;;;;;;6.95;1.73;;;12.50;99.90;;;;;;4943081;28;20106;-69
2022/11/16 12:22:21;;;;;;;9.95;1.83;;;12.40;99.90;;;;;;4937664;28;20056;-67
2022/11/16 12:25:06;;;;;;;14.82;2.08;;;12.50;99.90;;;;;;4924350;28;20039;-68
2022/11/16 12:27:43;;;;;;;8.60;1.95;;;12.60;99.90;;;;;;4937142;28;20420;-67
2022/11/16 12:30:13;;;;;;;5.60;1.67;;;12.50;99.90;;;;;;4944733;28;20226;-69
2022/11/16 12:33:10;;;;;;;4.07;1.48;;;12.60;99.90;;;;;;4951729;28;20043;-68
2022/11/16 12:35:50;;;;;;;8.52;1.65;;;12.60;99.90;;;;;;4939798;28;20050;-68
2022/11/16 12:38:24;;;;;;;9.38;2.00;;;12.60;99.90;;;;;;4955332;28;20201;-69
2022/11/16 12:41:11;;;;;;;6.45;1.70;;;12.50;99.90;;;;;;4946304;28;20031;-68
2022/11/16 12:44:04;;;;;;;10.20;1.73;;;12.60;99.90;;;;;;4937237;28;20424;-69
2022/11/16 12:46:47;;;;;;;10.02;1.80;;;12.60;99.90;;;;;;4942640;28;20403;-68
2022/11/16 12:49:28;;;;;;;6.22;1.38;;;12.60;99.90;;;;;;4948526;28;20035;-70
2022/11/16 12:52:24;;;;;;;6.10;1.55;;;12.70;99.90;;;;;;4938972;28;20574;-69
2022/11/16 12:55:17;;;;;;;8.48;1.58;;;12.70;99.90;;;;;;4942645;28;20086;-69
2022/11/16 12:58:16;;;;;;;6.93;1.80;;;12.70;99.90;;;;;;4944765;28;20294;-69
2022/11/16 13:01:01;;;;;;;5.10;1.50;;;12.70;99.90;;;;;;4942811;28;20112;-68
2022/11/16 13:03:45;;;;;;;7.68;1.35;;;12.70;99.90;;;;;;4945820;28;20034;-63
2022/11/16 13:06:18;;;;;;;7.45;1.58;;;12.60;99.90;;;;;;4950273;28;20034;-63
2022/11/16 13:09:05;;;;;;;8.68;1.75;;;12.70;99.90;;;;;;4943695;28;20079;-64
2022/11/16 13:11:36;;;;;;;8.13;1.75;;;12.70;99.90;;;;;;4958722;28;20134;-63
2022/11/16 13:14:06;;;;;;;8.48;1.73;;;12.80;99.90;;;;;;4941732;28;20035;-64
2022/11/16 13:16:33;;;;;;;6.80;1.67;;;12.90;99.90;;;;;;4944105;28;20292;-64
2022/11/16 13:19:02;;;;;;;9.48;1.60;;;13.00;99.90;;;;;;4966251;28;20097;-64
2022/11/16 13:21:34;;;;;;;8.93;1.65;;;13.00;99.90;;;;;;4956665;28;20418;-63
2022/11/16 13:24:12;;;;;;;8.47;1.60;;;13.10;99.90;;;;;;4942586;28;20039;-63
2022/11/16 13:27:08;;;;;;;5.35;1.20;;;13.10;99.90;;;;;;4943344;28;20039;-65
2022/11/16 13:29:43;;;;;;;8.57;1.75;;;13.00;99.90;;;;;;4937080;28;20517;-65
2022/11/16 13:32:21;;;;;;;7.22;1.52;;;13.00;99.90;;;;;;4945652;28;20042;-65
2022/11/16 13:34:48;;;;;;;5.90;1.50;;;13.00;99.90;;;;;;4946233;28;20035;-65
2022/11/16 13:37:35;;;;;;;9.48;1.60;;;13.00;99.90;;;;;;4935887;28;20120;-65
2022/11/16 13:40:01;;;;;;;4.57;1.55;;;12.90;99.90;;;;;;4947354;28;20046;-64